Time;durP1;ratioP1;P1;durP2;ratioP2;P2;SDS_P1;SDS_P2;PMS_P1;PMS_P2;Temp;Humidity;BMP_temperature;BMP_pressure;BME280_temperature;BME280_humidity;BME280_pressure;Samples;Min_cycle;Max_cycle;Signal;HPM_P1;HPM_P2
2021/01/13 00:00:23;;;;;;;15.65;12.20;;;;;;;1.68;58.62;100082.70;1709004;82;21962;-39
2021/01/13 00:02:51;;;;;;;16.07;10.88;;;;;;;1.69;58.70;100077.87;1712664;82;21863;-39
2021/01/13 00:05:20;;;;;;;16.60;11.12;;;;;;;1.69;58.55;100070.44;1773377;80;21145;-40
2021/01/13 00:07:51;;;;;;;14.75;11.48;;;;;;;1.69;58.57;100069.98;1772938;80;21574;-38
2021/01/13 00:10:19;;;;;;;15.20;10.93;;;;;;;1.70;58.67;100065.58;1773175;80;21142;-38
2021/01/13 00:12:47;;;;;;;16.95;11.38;;;;;;;1.69;58.65;100056.84;1772401;79;21145;-40
2021/01/13 00:15:15;;;;;;;16.00;11.65;;;;;;;1.68;58.63;100053.78;1774078;79;21134;-42
2021/01/13 00:17:49;;;;;;;15.18;11.40;;;;;;;1.69;58.67;100052.04;1770148;79;21191;-41
2021/01/13 00:20:16;;;;;;;14.63;11.90;;;;;;;1.69;58.57;100045.01;1770691;80;21165;-43
2021/01/13 00:22:47;;;;;;;15.08;10.93;;;;;;;1.69;58.64;100047.64;1773482;80;21142;-42
2021/01/13 00:25:15;;;;;;;13.65;10.55;;;;;;;1.70;58.48;100039.29;1772591;80;21629;-41
2021/01/13 00:27:45;;;;;;;15.95;10.82;;;;;;;1.70;58.41;100031.41;1728767;81;21134;-42
2021/01/13 00:30:14;;;;;;;14.93;10.43;;;;;;;1.69;58.67;100027.92;1764133;80;21146;-42
2021/01/13 00:32:41;;;;;;;16.87;11.93;;;;;;;1.70;58.59;100024.83;1767606;79;21150;-43
2021/01/13 00:35:10;;;;;;;14.73;10.90;;;;;;;1.70;58.65;100024.83;1767714;80;21166;-43
2021/01/13 00:37:38;;;;;;;19.73;11.22;;;;;;;1.70;58.68;100025.69;1769191;80;21130;-43
2021/01/13 00:40:08;;;;;;;15.90;11.55;;;;;;;1.71;58.68;100012.08;1710474;82;21194;-43
2021/01/13 00:42:45;;;;;;;15.68;10.55;;;;;;;1.70;58.63;100009.05;1764346;80;21617;-44
2021/01/13 00:45:14;;;;;;;16.10;11.15;;;;;;;1.69;58.60;99994.20;1765048;80;21098;-45
2021/01/13 00:47:42;;;;;;;11.90;9.15;;;;;;;1.66;58.60;99989.89;1763869;80;21142;-45
2021/01/13 00:50:11;;;;;;;14.13;9.03;;;;;;;1.65;58.42;99999.13;1767048;80;21158;-46
2021/01/13 00:52:48;;;;;;;12.35;8.58;;;;;;;1.61;58.39;99995.71;1768595;80;21137;-42
2021/01/13 00:55:16;;;;;;;10.20;7.50;;;;;;;1.61;58.34;99983.03;1763941;80;21121;-43
2021/01/13 00:57:50;;;;;;;8.98;6.85;;;;;;;1.59;58.35;99990.98;1767315;79;21145;-43
2021/01/13 01:00:20;;;;;;;10.08;6.65;;;;;;;1.58;58.42;99994.49;1767508;80;21138;-42
2021/01/13 01:02:50;;;;;;;9.30;7.17;;;;;;;1.60;58.41;99995.31;1773285;79;21284;-43
2021/01/13 01:05:17;;;;;;;9.40;7.12;;;;;;;1.58;58.45;99995.80;1767443;79;21589;-42
2021/01/13 01:07:45;;;;;;;7.53;5.50;;;;;;;1.57;58.46;100004.61;1769984;80;21574;-45
2021/01/13 01:10:22;;;;;;;8.00;6.10;;;;;;;1.57;58.29;100001.12;1773024;80;21956;-41
2021/01/13 01:12:49;;;;;;;11.55;6.60;;;;;;;1.57;58.30;99995.88;1771861;80;21137;-40
2021/01/13 01:15:17;;;;;;;6.30;4.47;;;;;;;1.58;58.25;100003.69;1774386;80;21137;-41
2021/01/13 01:17:45;;;;;;;8.03;6.03;;;;;;;1.56;58.04;100001.55;1767955;80;21718;-43
2021/01/13 01:20:13;;;;;;;6.60;5.12;;;;;;;1.54;58.13;99994.20;1772597;80;21145;-43
2021/01/13 01:22:55;;;;;;;8.48;7.08;;;;;;;1.53;57.84;99969.26;1775451;80;21145;-43
2021/01/13 01:25:25;;;;;;;7.78;5.92;;;;;;;1.48;57.80;99964.13;1772663;80;21141;-41
2021/01/13 01:27:55;;;;;;;8.10;5.78;;;;;;;1.46;57.92;99960.25;1770766;80;21138;-43
2021/01/13 01:30:24;;;;;;;7.50;6.20;;;;;;;1.46;57.79;99948.42;1771668;80;21142;-44
2021/01/13 01:32:52;;;;;;;9.03;6.67;;;;;;;1.45;57.87;99940.58;1767115;79;21155;-51
2021/01/13 01:35:19;;;;;;;9.40;6.78;;;;;;;1.45;57.81;99940.58;1773982;80;21122;-44
2021/01/13 01:37:49;;;;;;;6.92;5.62;;;;;;;1.45;57.80;99936.64;1777352;80;21111;-43
2021/01/13 01:40:18;;;;;;;8.50;5.67;;;;;;;1.44;57.82;99937.09;1772852;80;21153;-42
2021/01/13 01:42:54;;;;;;;9.00;7.15;;;;;;;1.45;57.61;99949.77;1769707;80;21290;-44
2021/01/13 01:45:26;;;;;;;10.90;6.37;;;;;;;1.44;57.87;99946.75;1735780;80;21271;-43
2021/01/13 01:48:33;;;;;;;8.80;7.08;;;;;;;1.44;57.94;99941.50;1717489;82;21161;-42
2021/01/13 01:51:03;;;;;;;9.20;6.22;;;;;;;1.43;57.95;99941.92;1769329;80;21165;-43
2021/01/13 01:54:17;;;;;;;11.78;7.70;;;;;;;1.44;57.56;99936.23;1772893;79;21180;-43
2021/01/13 01:56:45;;;;;;;10.82;6.47;;;;;;;1.41;57.34;99933.67;1774612;80;21151;-42
2021/01/13 01:59:15;;;;;;;9.65;7.92;;;;;;;1.41;57.29;99931.05;1772452;80;21124;-44
2021/01/13 02:01:51;;;;;;;10.58;8.18;;;;;;;1.40;57.22;99928.03;1772029;80;21122;-44
2021/01/13 02:04:32;;;;;;;9.80;7.95;;;;;;;1.40;57.26;99931.51;1774362;80;21121;-44
2021/01/13 02:07:10;;;;;;;12.15;8.95;;;;;;;1.42;57.06;99923.59;1765289;80;21134;-42
2021/01/13 02:09:38;;;;;;;11.73;8.38;;;;;;;1.43;57.03;99914.79;1768267;80;21118;-40
2021/01/13 02:12:11;;;;;;;11.93;8.38;;;;;;;1.42;56.76;99919.19;1763752;80;21185;-41
2021/01/13 02:14:42;;;;;;;10.28;8.03;;;;;;;1.41;56.81;99919.22;1774377;80;21177;-44
2021/01/13 02:17:10;;;;;;;11.05;7.70;;;;;;;1.38;56.79;99916.70;1772538;80;21854;-43
2021/01/13 02:20:09;;;;;;;13.48;9.00;;;;;;;1.36;56.71;99911.93;1771668;79;21137;-43
2021/01/13 02:22:53;;;;;;;9.88;8.00;;;;;;;1.34;56.55;99907.20;1770618;80;21121;-43
2021/01/13 02:25:55;;;;;;;11.43;8.35;;;;;;;1.32;56.59;99905.92;1770398;80;21260;-41
2021/01/13 02:28:23;;;;;;;10.63;8.58;;;;;;;1.32;56.47;99898.50;1772344;80;21110;-40
2021/01/13 02:31:14;;;;;;;12.25;9.33;;;;;;;1.30;56.58;99889.34;1745089;80;21145;-42
2021/01/13 02:33:52;;;;;;;;;;;;;;;1.30;56.69;99889.34;1778038;79;21133;-41
2021/01/13 02:36:37;;;;;;;14.80;10.13;;;;;;;1.29;56.47;99867.46;1744044;80;20164;-42
2021/01/13 02:39:05;;;;;;;12.13;9.50;;;;;;;1.26;56.64;99862.31;1749514;80;21142;-43
2021/01/13 02:41:41;;;;;;;11.05;8.98;;;;;;;1.25;56.55;99865.82;1751484;80;21153;-44
2021/01/13 02:44:14;;;;;;;15.45;9.98;;;;;;;1.30;56.54;99865.23;1807477;78;22971;-41
2021/01/13 02:47:00;;;;;;;12.88;9.55;;;;;;;1.23;56.54;99868.09;1664067;81;21153;-43
2021/01/13 02:49:40;;;;;;;12.88;9.45;;;;;;;1.20;56.52;99861.16;1734590;81;21123;-43
2021/01/13 02:52:19;;;;;;;11.70;8.23;;;;;;;1.19;56.71;99855.52;1706667;81;21142;-45
2021/01/13 02:54:55;;;;;;;13.15;9.23;;;;;;;1.18;56.62;99862.97;1733835;81;21161;-46
2021/01/13 02:57:27;;;;;;;13.50;10.10;;;;;;;1.17;56.51;99857.78;1731623;81;21129;-44
2021/01/13 02:59:59;;;;;;;13.38;9.75;;;;;;;1.16;56.45;99856.03;1734462;81;21139;-44
2021/01/13 03:02:37;;;;;;;14.45;10.40;;;;;;;1.14;56.46;99852.16;1707966;82;21169;-46
2021/01/13 03:05:06;;;;;;;13.05;10.23;;;;;;;1.11;56.37;99855.31;1731797;81;21157;-46
2021/01/13 03:07:37;;;;;;;12.40;9.20;;;;;;;1.07;56.38;99855.87;1734675;81;21153;-42
2021/01/13 03:10:11;;;;;;;13.48;9.40;;;;;;;1.06;56.53;99863.36;1736382;81;21143;-40
2021/01/13 03:12:40;;;;;;;16.20;12.03;;;;;;;1.06;56.40;99853.70;1731959;81;21112;-44
2021/01/13 03:15:09;;;;;;;12.25;10.48;;;;;;;1.06;56.36;99850.22;1735094;81;21127;-45
2021/01/13 03:17:51;;;;;;;12.55;9.85;;;;;;;1.07;56.36;99848.84;1745906;80;21202;-43
2021/01/13 03:20:33;;;;;;;13.35;10.05;;;;;;;1.07;56.45;99846.68;1739622;81;21165;-46
2021/01/13 03:23:27;;;;;;;12.13;9.48;;;;;;;1.07;56.32;99837.03;1746409;81;21142;-44
2021/01/13 03:26:03;;;;;;;13.75;9.40;;;;;;;1.08;56.49;99837.45;1716705;81;21140;-43
2021/01/13 03:28:33;;;;;;;10.95;8.95;;;;;;;1.07;56.34;99834.41;1712222;81;21301;-40
2021/01/13 03:31:01;;;;;;;11.73;9.23;;;;;;;1.07;56.39;99836.17;1710638;83;21166;-44
2021/01/13 03:34:10;;;;;;;13.08;9.53;;;;;;;1.05;56.27;99829.64;1741386;81;21586;-44
2021/01/13 03:36:47;;;;;;;11.90;9.20;;;;;;;1.06;56.30;99832.70;1714481;83;21118;-42
2021/01/13 03:39:15;;;;;;;12.25;8.80;;;;;;;1.08;56.42;99826.06;1710830;83;21566;-42
2021/01/13 03:42:12;;;;;;;12.20;8.95;;;;;;;1.07;56.25;99817.33;1665226;83;21148;-45
2021/01/13 03:44:42;;;;;;;12.43;8.48;;;;;;;1.06;56.32;99815.63;1744217;80;21641;-42
2021/01/13 03:47:33;;;;;;;11.03;9.15;;;;;;;1.07;56.34;99810.77;1738500;81;21178;-41
2021/01/13 03:50:20;;;;;;;12.43;9.28;;;;;;;1.08;56.43;99810.30;1716627;82;21193;-44
2021/01/13 03:53:06;;;;;;;12.13;9.00;;;;;;;1.08;56.44;99803.73;1716915;82;21138;-43
2021/01/13 03:55:37;;;;;;;10.00;7.75;;;;;;;1.06;56.39;99796.39;1724223;82;21625;-44
2021/01/13 03:58:45;;;;;;;11.48;9.03;;;;;;;1.04;56.35;99799.50;1717016;82;21130;-44
2021/01/13 04:01:25;;;;;;;11.30;8.93;;;;;;;1.05;56.30;99795.50;1716305;82;21594;-43
2021/01/13 04:04:24;;;;;;;9.90;8.13;;;;;;;1.04;56.48;99787.69;1716477;82;21136;-46
2021/01/13 04:07:00;;;;;;;12.15;8.55;;;;;;;1.03;56.53;99780.70;1718410;82;21157;-45
2021/01/13 04:09:31;;;;;;;10.45;8.88;;;;;;;1.01;56.55;99781.22;1717046;82;21186;-42
2021/01/13 04:12:13;;;;;;;11.33;8.45;;;;;;;0.99;56.52;99774.69;1739939;81;21140;-43
2021/01/13 04:14:54;;;;;;;10.98;8.20;;;;;;;0.99;56.56;99764.65;1739955;82;21154;-42
2021/01/13 04:17:22;;;;;;;;;;;;;;;1.00;56.64;99765.89;1717737;81;21173;-41
2021/01/13 04:19:50;;;;;;;13.25;8.25;;;;;;;1.01;56.64;99762.38;1711455;83;20188;-44
2021/01/13 04:22:19;;;;;;;11.88;8.68;;;;;;;1.03;56.51;99768.45;1713080;82;21660;-42
2021/01/13 04:24:48;;;;;;;13.25;9.35;;;;;;;0.99;56.45;99766.81;1710744;83;21142;-43
2021/01/13 04:27:16;;;;;;;13.80;10.23;;;;;;;0.98;56.66;99762.48;1713364;82;21195;-43
2021/01/13 04:29:46;;;;;;;13.93;10.15;;;;;;;0.99;56.54;99764.19;1738688;82;21095;-43
2021/01/13 04:32:14;;;;;;;12.95;9.85;;;;;;;1.01;56.64;99763.70;1743406;82;21142;-43
2021/01/13 04:34:42;;;;;;;13.53;10.18;;;;;;;1.03;56.73;99761.89;1742324;81;21165;-45
2021/01/13 04:37:09;;;;;;;12.80;9.78;;;;;;;1.04;56.63;99763.59;1742347;82;21157;-44
2021/01/13 04:39:38;;;;;;;16.48;10.85;;;;;;;1.04;56.64;99757.03;1710962;83;21126;-42
2021/01/13 04:42:13;;;;;;;15.55;10.82;;;;;;;1.04;56.74;99760.97;1721480;82;21183;-43
2021/01/13 04:45:03;;;;;;;13.93;10.28;;;;;;;1.05;56.77;99757.42;1721193;80;21186;-44
2021/01/13 04:47:50;;;;;;;11.80;10.05;;;;;;;1.03;56.69;99752.70;1752531;81;21162;-43
2021/01/13 04:50:18;;;;;;;13.58;10.53;;;;;;;1.05;56.67;99751.31;1749862;80;21463;-45
2021/01/13 04:52:49;;;;;;;13.83;10.78;;;;;;;1.08;56.66;99752.53;1754534;80;21103;-45
2021/01/13 04:55:26;;;;;;;14.18;11.00;;;;;;;1.07;56.63;99748.19;1698343;82;21596;-42
2021/01/13 04:58:17;;;;;;;12.98;10.43;;;;;;;1.06;56.66;99738.61;1703039;82;21133;-42
2021/01/13 05:01:05;;;;;;;;;;;;;;;1.07;56.66;99737.69;1621939;86;21925;-43
2021/01/13 05:04:17;;;;;;;13.38;10.45;;;;;;;1.06;56.75;99739.47;1645076;86;20514;-45
2021/01/13 05:06:49;;;;;;;15.60;11.40;;;;;;;1.06;56.89;99736.84;1644534;85;21180;-42
2021/01/13 05:09:17;;;;;;;13.95;10.88;;;;;;;1.06;56.94;99734.21;1658225;84;21162;-45
2021/01/13 05:11:49;;;;;;;13.70;10.70;;;;;;;1.07;56.82;99726.72;1674702;83;21171;-46
2021/01/13 05:14:18;;;;;;;14.38;10.38;;;;;;;1.07;56.90;99732.44;1675903;84;21150;-42
2021/01/13 05:16:58;;;;;;;15.90;12.28;;;;;;;1.08;56.95;99731.52;1678629;84;21186;-41
2021/01/13 05:19:43;;;;;;;15.03;11.15;;;;;;;1.10;56.96;99726.23;1677966;84;21162;-48
2021/01/13 05:22:13;;;;;;;15.95;12.05;;;;;;;1.11;56.74;99726.63;1677867;84;22102;-43
2021/01/13 05:24:41;;;;;;;13.93;10.45;;;;;;;1.09;56.70;99717.50;1678108;84;21682;-41
2021/01/13 05:27:43;;;;;;;17.42;11.33;;;;;;;1.09;56.80;99709.62;1673621;84;21339;-41
2021/01/13 05:30:12;;;;;;;16.10;11.22;;;;;;;1.12;56.84;99709.97;1677983;84;21178;-42
2021/01/13 05:32:40;;;;;;;18.25;12.70;;;;;;;1.12;56.75;99698.16;1681996;84;21158;-45
2021/01/13 05:35:09;;;;;;;16.55;11.85;;;;;;;1.13;56.81;99699.40;1679903;84;21868;-45
2021/01/13 05:37:52;;;;;;;17.15;13.08;;;;;;;1.14;56.85;99697.66;1722226;80;21144;-41
2021/01/13 05:40:20;;;;;;;15.23;12.15;;;;;;;1.13;56.81;99700.71;1755624;81;21166;-41
2021/01/13 05:42:49;;;;;;;14.98;11.90;;;;;;;1.15;56.88;99714.66;1755978;80;21126;-43
2021/01/13 05:45:18;;;;;;;17.00;11.78;;;;;;;1.15;56.79;99714.66;1765678;80;21158;-43
2021/01/13 05:47:53;;;;;;;16.52;11.15;;;;;;;1.15;56.81;99713.34;1764221;80;21178;-43
2021/01/13 05:50:25;;;;;;;13.75;11.35;;;;;;;1.14;56.89;99709.48;1712641;82;21172;-40
2021/01/13 05:52:55;;;;;;;16.73;11.03;;;;;;;1.13;57.05;99711.68;1717196;83;21170;-40
2021/01/13 05:55:23;;;;;;;18.37;12.20;;;;;;;1.14;57.10;99710.79;1714968;83;21122;-39
2021/01/13 05:57:59;;;;;;;12.98;10.08;;;;;;;1.13;56.96;99705.11;1734955;82;21187;-45
2021/01/13 06:00:37;;;;;;;14.95;9.25;;;;;;;1.12;57.06;99702.09;1698261;83;21192;-41
2021/01/13 06:03:15;;;;;;;11.43;8.85;;;;;;;1.12;57.12;99701.63;1709516;82;21607;-42
2021/01/13 06:05:53;;;;;;;11.00;7.92;;;;;;;1.12;56.93;99694.22;1693777;83;21159;-47
2021/01/13 06:08:30;;;;;;;11.57;8.33;;;;;;;1.12;57.00;99692.44;1714969;83;21161;-39
2021/01/13 06:11:03;;;;;;;13.18;8.80;;;;;;;1.08;57.05;99690.38;1728581;82;21485;-41
2021/01/13 06:13:33;;;;;;;12.50;8.93;;;;;;;1.09;57.01;99689.92;1706397;82;21178;-41
2021/01/13 06:16:05;;;;;;;12.45;9.33;;;;;;;1.08;56.82;99690.38;1700358;82;21154;-40
2021/01/13 06:18:35;;;;;;;14.63;7.53;;;;;;;1.07;56.93;99695.67;1717573;83;21863;-42
2021/01/13 06:21:12;;;;;;;11.38;8.65;;;;;;;1.06;57.03;99697.91;1709528;82;21313;-41
2021/01/13 06:23:52;;;;;;;13.58;10.13;;;;;;;1.05;57.12;99690.91;1708756;82;21155;-42
2021/01/13 06:26:20;;;;;;;13.05;8.45;;;;;;;1.05;57.24;99685.20;1703883;83;21148;-42
2021/01/13 06:29:11;;;;;;;10.40;8.33;;;;;;;1.05;57.35;99681.72;1718114;83;21478;-42
2021/01/13 06:31:43;;;;;;;12.93;9.48;;;;;;;1.05;57.34;99682.58;1703482;83;21142;-43
2021/01/13 06:34:22;;;;;;;15.88;9.98;;;;;;;1.04;57.34;99684.81;1707212;82;21298;-42
2021/01/13 06:37:10;;;;;;;12.37;10.38;;;;;;;1.02;57.35;99681.37;1713960;83;21143;-42
2021/01/13 06:39:37;;;;;;;12.60;10.05;;;;;;;1.03;57.41;99675.23;1729929;80;21154;-42
2021/01/13 06:42:05;;;;;;;14.53;9.93;;;;;;;1.03;57.36;99675.66;1733004;82;21158;-43
2021/01/13 06:44:45;;;;;;;14.63;10.90;;;;;;;1.03;57.45;99673.91;1710630;82;21157;-45
2021/01/13 06:47:13;;;;;;;11.78;10.23;;;;;;;1.04;57.49;99672.99;1700074;82;21130;-44
2021/01/13 06:49:41;;;;;;;14.38;9.78;;;;;;;1.05;57.47;99676.01;1704121;82;21160;-43
2021/01/13 06:52:09;;;;;;;14.15;10.53;;;;;;;1.05;57.62;99670.76;1674383;84;21123;-43
2021/01/13 06:54:45;;;;;;;13.75;10.10;;;;;;;1.02;57.47;99670.86;1670254;82;21162;-42
2021/01/13 06:57:14;;;;;;;13.22;10.93;;;;;;;1.03;57.41;99669.97;1700188;82;21168;-43
2021/01/13 06:59:43;;;;;;;14.60;10.98;;;;;;;1.02;57.64;99670.86;1699347;82;21130;-41
2021/01/13 07:02:10;;;;;;;15.53;11.85;;;;;;;1.01;57.55;99674.88;1702363;82;21551;-43
2021/01/13 07:04:46;;;;;;;13.03;11.12;;;;;;;0.97;57.55;99665.36;1700757;82;21154;-42
2021/01/13 07:07:18;;;;;;;14.78;11.12;;;;;;;0.96;57.46;99662.31;1662638;84;21586;-44
2021/01/13 07:09:48;;;;;;;14.80;10.72;;;;;;;0.92;57.64;99657.63;1734607;80;21155;-44
2021/01/13 07:12:26;;;;;;;18.52;12.53;;;;;;;0.94;57.70;99657.59;1732601;80;21183;-42
2021/01/13 07:14:56;;;;;;;16.80;11.33;;;;;;;0.90;57.79;99661.20;1731774;80;21111;-43
2021/01/13 07:17:26;;;;;;;19.55;13.18;;;;;;;0.91;57.80;99665.53;1732743;80;21633;-42
2021/01/13 07:19:56;;;;;;;17.82;12.65;;;;;;;0.90;57.82;99663.83;1737493;80;21702;-43
2021/01/13 07:22:25;;;;;;;16.23;12.88;;;;;;;0.90;57.93;99650.70;1734681;80;21754;-43
2021/01/13 07:24:54;;;;;;;17.25;12.03;;;;;;;0.90;57.85;99649.39;1736518;80;21179;-43
2021/01/13 07:27:23;;;;;;;19.00;12.28;;;;;;;0.91;57.89;99651.09;1739877;81;21195;-42
2021/01/13 07:29:51;;;;;;;18.07;12.82;;;;;;;0.88;57.93;99642.87;1736148;81;21153;-41
2021/01/13 07:32:23;;;;;;;16.77;11.63;;;;;;;0.86;57.78;99635.52;1740090;80;21120;-43
2021/01/13 07:34:53;;;;;;;17.15;12.45;;;;;;;0.83;57.89;99636.48;1738054;81;21148;-41
2021/01/13 07:37:22;;;;;;;17.27;12.35;;;;;;;0.81;57.90;99635.66;1739278;81;21120;-41
2021/01/13 07:40:29;;;;;;;18.40;12.78;;;;;;;0.81;57.97;99626.94;1740220;80;21149;-42
2021/01/13 07:43:11;;;;;;;18.02;13.08;;;;;;;0.83;57.94;99618.10;1738277;80;21820;-45
2021/01/13 07:45:43;;;;;;;18.87;12.05;;;;;;;0.86;58.14;99618.45;1759240;80;21178;-42
2021/01/13 07:48:16;;;;;;;16.42;12.82;;;;;;;0.88;58.19;99615.30;1721006;82;21158;-43
2021/01/13 07:50:46;;;;;;;16.35;11.43;;;;;;;0.90;58.19;99609.55;1674817;83;21111;-47
2021/01/13 07:53:28;;;;;;;21.10;13.85;;;;;;;0.90;58.14;99601.67;1760360;80;21145;-43
2021/01/13 07:55:59;;;;;;;17.07;12.78;;;;;;;0.86;58.11;99594.37;1756388;80;21732;-44
2021/01/13 07:58:32;;;;;;;17.70;12.73;;;;;;;0.82;58.11;99587.95;1760259;80;21150;-42
2021/01/13 08:01:17;;;;;;;16.73;12.10;;;;;;;0.83;58.21;99585.72;1757645;80;21440;-42
2021/01/13 08:04:00;;;;;;;17.82;12.93;;;;;;;0.85;58.19;99582.59;1759186;80;21126;-44
2021/01/13 08:09:22;;;;;;;19.27;13.62;;;;;;;0.89;58.11;99568.93;1791977;77;22824;-39
2021/01/13 08:12:12;;;;;;;20.77;15.00;;;;;;;0.82;58.16;99569.58;1769039;79;21181;-43
2021/01/13 08:15:11;;;;;;;19.20;13.43;;;;;;;0.75;58.72;99561.49;1769002;79;21109;-44
2021/01/13 08:18:04;;;;;;;15.75;12.40;;;;;;;0.75;58.72;99561.49;1763936;79;21705;-41
2021/01/13 08:21:11;;;;;;;18.12;12.43;;;;;;;0.76;58.39;99560.59;1745660;80;21121;-42
2021/01/13 08:23:51;;;;;;;18.57;13.90;;;;;;;0.74;58.48;99552.77;1749494;80;21282;-43
2021/01/13 08:26:18;;;;;;;18.98;12.55;;;;;;;0.69;58.51;99558.63;1753984;80;21157;-43
2021/01/13 08:28:48;;;;;;;76.37;45.35;;;;;;;0.67;58.69;99550.39;1744704;80;21184;-44
2021/01/13 08:31:24;;;;;;;29.42;18.02;;;;;;;0.70;58.90;99539.78;1755046;80;21165;-42
2021/01/13 08:34:09;;;;;;;72.30;42.53;;;;;;;0.72;59.06;99541.45;1751880;80;21150;-43
2021/01/13 08:36:54;;;;;;;66.60;40.00;;;;;;;0.75;58.95;99533.47;1756285;80;21157;-46
2021/01/13 08:39:29;;;;;;;37.95;24.23;;;;;;;0.80;58.70;99534.63;1741124;80;21106;-54
2021/01/13 08:42:24;;;;;;;22.02;15.13;;;;;;;0.81;59.04;99535.91;1749028;80;21152;-43
2021/01/13 08:44:54;;;;;;;21.45;14.35;;;;;;;0.84;58.91;99535.80;1751237;80;21133;-43
2021/01/13 08:47:26;;;;;;;24.47;15.23;;;;;;;0.85;58.50;99532.71;1723817;80;21124;-44
2021/01/13 08:50:12;;;;;;;27.07;17.23;;;;;;;0.80;58.65;99532.01;1746077;80;21120;-41
2021/01/13 08:52:50;;;;;;;19.37;13.85;;;;;;;0.76;58.78;99531.27;1752521;80;21169;-42
2021/01/13 08:55:20;;;;;;;19.62;13.45;;;;;;;0.71;58.81;99531.02;1747886;80;22000;-45
2021/01/13 08:57:52;;;;;;;18.70;13.85;;;;;;;0.74;59.30;99522.58;1747255;80;21145;-46
2021/01/13 09:00:22;;;;;;;15.60;12.18;;;;;;;0.82;59.32;99519.23;1748311;80;21762;-44
2021/01/13 09:03:13;;;;;;;18.32;12.30;;;;;;;0.91;59.12;99521.14;1747035;80;21266;-45
2021/01/13 09:05:42;;;;;;;17.98;13.80;;;;;;;0.97;59.07;99520.95;1748521;80;21201;-46
2021/01/13 09:08:11;;;;;;;19.42;13.03;;;;;;;1.01;58.65;99518.63;1750828;80;21727;-45
2021/01/13 09:10:52;;;;;;;16.02;12.43;;;;;;;1.03;58.56;99517.67;1744114;80;21153;-45
2021/01/13 09:13:38;;;;;;;17.30;11.60;;;;;;;1.06;58.68;99518.02;1743323;80;21540;-44
2021/01/13 09:16:27;;;;;;;15.85;11.33;;;;;;;1.12;58.32;99512.53;1747480;80;21153;-45
2021/01/13 09:19:07;;;;;;;18.95;11.90;;;;;;;1.13;58.13;99507.67;1743299;80;21133;-44
2021/01/13 09:21:40;;;;;;;13.70;9.85;;;;;;;1.16;57.93;99510.21;1744187;80;21646;-47
2021/01/13 09:24:10;;;;;;;13.72;10.48;;;;;;;1.16;57.78;99510.64;1744089;80;21141;-45
2021/01/13 09:26:38;;;;;;;13.50;9.93;;;;;;;1.16;57.67;99515.47;1719047;80;21106;-45
2021/01/13 09:29:09;;;;;;;12.58;9.50;;;;;;;1.17;57.54;99515.86;1745395;80;21141;-44
2021/01/13 09:31:39;;;;;;;13.95;9.73;;;;;;;1.17;57.49;99515.86;1741908;80;22145;-43
2021/01/13 09:34:08;;;;;;;16.00;11.15;;;;;;;1.19;57.53;99514.04;1705398;82;21185;-43
2021/01/13 09:36:57;;;;;;;16.80;11.88;;;;;;;1.21;57.42;99516.16;1685369;83;21161;-46
2021/01/13 09:39:33;;;;;;;12.35;9.98;;;;;;;1.22;57.37;99511.76;1685243;83;21186;-44
2021/01/13 09:42:03;;;;;;;12.50;10.23;;;;;;;1.23;57.26;99510.83;1685268;83;21171;-45
2021/01/13 09:44:33;;;;;;;14.78;10.95;;;;;;;1.18;57.23;99503.11;1688200;83;21593;-46
2021/01/13 09:47:25;;;;;;;12.18;9.48;;;;;;;1.14;57.46;99499.36;1685724;83;21181;-45
2021/01/13 09:49:56;;;;;;;15.88;11.75;;;;;;;1.12;57.64;99496.78;1616234;87;21691;-47
2021/01/13 09:52:24;;;;;;;34.65;22.48;;;;;;;1.13;57.59;99492.38;1638125;86;21643;-42
2021/01/13 09:54:59;;;;;;;36.08;21.15;;;;;;;1.07;57.27;99490.37;1622918;86;21267;-43
2021/01/13 09:57:27;;;;;;;15.93;10.53;;;;;;;0.99;57.42;99485.00;1646018;85;21149;-43
2021/01/13 10:00:13;;;;;;;11.93;8.75;;;;;;;0.96;57.27;99479.83;1642191;86;21230;-45
2021/01/13 10:02:45;;;;;;;13.83;8.75;;;;;;;0.96;57.22;99472.83;1621499;86;21361;-44
2021/01/13 10:05:13;;;;;;;34.48;19.05;;;;;;;0.99;56.88;99468.78;1635687;86;21380;-52
2021/01/13 10:07:42;;;;;;;23.07;13.40;;;;;;;0.99;56.92;99460.05;1646339;85;21574;-43
2021/01/13 10:10:10;;;;;;;19.32;9.80;;;;;;;1.00;57.04;99457.35;1610581;87;21326;-44
2021/01/13 10:12:46;;;;;;;20.97;9.35;;;;;;;1.02;57.12;99455.53;1620121;87;21163;-45
2021/01/13 10:15:14;;;;;;;12.58;8.50;;;;;;;1.05;57.43;99448.86;1652464;85;21332;-43
2021/01/13 10:17:43;;;;;;;10.88;6.40;;;;;;;1.12;57.21;99447.34;1648707;85;21153;-44
2021/01/13 10:20:21;;;;;;;7.90;5.85;;;;;;;1.14;56.93;99446.38;1648910;85;21182;-46
2021/01/13 10:22:50;;;;;;;8.60;6.62;;;;;;;1.18;56.75;99439.23;1648972;85;21184;-45
2021/01/13 10:25:27;;;;;;;11.25;6.40;;;;;;;1.22;56.65;99439.52;1649838;85;21686;-42
2021/01/13 10:28:02;;;;;;;8.28;6.00;;;;;;;1.26;56.49;99429.28;1798049;78;22637;-45
2021/01/13 10:30:31;;;;;;;10.70;6.60;;;;;;;1.23;56.55;99429.41;1741667;81;21787;-42
2021/01/13 10:32:59;;;;;;;7.70;5.85;;;;;;;1.27;56.52;99421.83;1717146;81;21190;-43
2021/01/13 10:35:39;;;;;;;8.80;5.50;;;;;;;1.30;56.40;99419.92;1742932;81;21142;-42
2021/01/13 10:38:07;;;;;;;7.03;5.62;;;;;;;1.32;56.28;99419.03;1737501;81;21663;-43
2021/01/13 10:40:36;;;;;;;7.42;6.05;;;;;;;1.27;55.89;99402.12;1739664;80;21724;-42
2021/01/13 10:43:04;;;;;;;6.90;5.47;;;;;;;1.26;55.91;99402.59;1742778;81;21159;-43
2021/01/13 10:45:32;;;;;;;8.48;6.40;;;;;;;1.28;55.70;99391.53;1674339;82;21668;-41
2021/01/13 10:48:04;;;;;;;7.78;6.00;;;;;;;1.22;55.32;99378.65;1714190;82;21154;-42
2021/01/13 10:50:32;;;;;;;9.25;6.60;;;;;;;1.12;55.32;99381.22;1718799;81;21133;-43
2021/01/13 10:53:01;;;;;;;8.63;6.40;;;;;;;1.04;55.75;99376.25;1722488;82;21589;-42
2021/01/13 10:55:33;;;;;;;7.83;5.85;;;;;;;1.03;55.88;99376.30;1718658;82;21212;-42
2021/01/13 10:58:01;;;;;;;9.20;6.70;;;;;;;1.02;56.34;99371.51;1711963;82;21595;-42
2021/01/13 11:00:31;;;;;;;8.45;6.08;;;;;;;1.07;56.40;99372.20;1666938;83;21140;-41
2021/01/13 11:03:02;;;;;;;10.03;6.97;;;;;;;1.12;56.52;99365.92;1716106;81;21629;-42
2021/01/13 11:08:13;;;;;;;10.00;6.78;;;;;;;1.16;56.64;99365.77;1767768;78;22663;-45
2021/01/13 11:10:42;;;;;;;12.03;7.92;;;;;;;1.10;56.58;99362.03;1724837;80;21126;-42
2021/01/13 11:13:14;;;;;;;10.70;6.55;;;;;;;1.07;56.87;99359.53;1740835;80;21760;-43
2021/01/13 11:15:44;;;;;;;9.90;7.12;;;;;;;1.05;56.78;99351.70;1742764;80;21102;-42
2021/01/13 11:18:14;;;;;;;9.20;7.00;;;;;;;0.96;56.47;99353.37;1741540;80;21306;-42
2021/01/13 11:20:41;;;;;;;7.03;5.42;;;;;;;0.84;56.86;99352.04;1712559;82;21159;-42
2021/01/13 11:23:10;;;;;;;10.35;6.75;;;;;;;0.83;56.93;99354.28;1666560;82;21128;-43
2021/01/13 11:25:39;;;;;;;8.25;5.92;;;;;;;0.83;57.15;99346.41;1720419;82;21161;-45
2021/01/13 11:28:13;;;;;;;10.98;6.55;;;;;;;0.84;57.15;99346.79;1722800;82;21168;-41
2021/01/13 11:33:17;;;;;;;7.55;5.75;;;;;;;0.98;57.03;99334.48;1767777;79;22428;-40
2021/01/13 11:35:47;;;;;;;8.88;5.78;;;;;;;0.96;56.45;99341.55;1741560;80;21121;-39
2021/01/13 11:38:38;;;;;;;7.50;5.58;;;;;;;0.92;56.41;99332.53;1746943;80;21146;-43
2021/01/13 11:41:51;;;;;;;6.30;4.55;;;;;;;0.91;56.53;99330.37;1691123;83;21172;-44
2021/01/13 11:44:35;;;;;;;13.50;7.08;;;;;;;0.93;56.28;99328.98;1697108;83;21415;-44
2021/01/13 11:47:20;;;;;;;8.48;6.05;;;;;;;0.94;56.57;99325.45;1686078;83;21186;-44
2021/01/13 11:49:56;;;;;;;8.23;5.30;;;;;;;0.93;56.04;99322.41;1690533;83;21149;-42
2021/01/13 11:52:32;;;;;;;7.55;5.50;;;;;;;0.86;56.44;99317.88;1689604;83;21744;-41
2021/01/13 11:55:00;;;;;;;6.90;5.20;;;;;;;0.90;56.54;99322.53;1687824;84;21501;-42
2021/01/13 11:57:31;;;;;;;11.48;5.70;;;;;;;0.93;56.42;99324.58;1676141;82;21137;-42
2021/01/13 12:00:18;;;;;;;9.03;5.78;;;;;;;0.93;56.22;99311.91;1694816;82;21629;-40
2021/01/13 12:02:56;;;;;;;10.93;6.95;;;;;;;0.91;56.40;99308.05;1698263;82;21161;-42
2021/01/13 12:05:37;;;;;;;7.95;6.25;;;;;;;0.90;56.31;99312.03;1710647;82;21578;-41
2021/01/13 12:08:07;;;;;;;8.75;6.60;;;;;;;0.87;56.33;99299.88;1695215;82;21668;-40
2021/01/13 12:10:47;;;;;;;10.80;8.07;;;;;;;0.83;56.17;99302.20;1699761;82;21319;-40
2021/01/13 12:13:20;;;;;;;8.28;6.10;;;;;;;0.76;56.36;99298.98;1696078;82;21173;-40
2021/01/13 12:16:02;;;;;;;9.03;5.60;;;;;;;0.72;56.30;99294.74;1714485;82;21138;-43